sensor_id;sensor_type;location;lat;lon;timestamp;P1;durP1;ratioP1;P2;durP2;ratioP2
60430;SDS011;46285;45.122;20.726;2023-05-23T00:03:33;12.48;;;7.47;;
60430;SDS011;46285;45.122;20.726;2023-05-23T00:13:34;10.25;;;7.50;;
60430;SDS011;46285;45.122;20.726;2023-05-23T00:23:36;11.30;;;7.88;;
60430;SDS011;46285;45.122;20.726;2023-05-23T00:33:37;14.15;;;8.27;;
60430;SDS011;46285;45.122;20.726;2023-05-23T00:43:38;12.43;;;8.10;;
60430;SDS011;46285;45.122;20.726;2023-05-23T00:53:40;13.77;;;9.15;;
60430;SDS011;46285;45.122;20.726;2023-05-23T01:03:41;16.20;;;9.05;;
60430;SDS011;46285;45.122;20.726;2023-05-23T01:13:46;14.75;;;9.50;;
60430;SDS011;46285;45.122;20.726;2023-05-23T01:34:11;14.48;;;9.77;;
60430;SDS011;46285;45.122;20.726;2023-05-23T01:44:16;12.45;;;10.38;;
60430;SDS011;46285;45.122;20.726;2023-05-23T01:54:17;15.18;;;10.15;;
60430;SDS011;46285;45.122;20.726;2023-05-23T02:04:18;14.57;;;9.30;;
60430;SDS011;46285;45.122;20.726;2023-05-23T02:14:20;14.70;;;9.88;;
60430;SDS011;46285;45.122;20.726;2023-05-23T02:24:21;14.00;;;9.95;;
60430;SDS011;46285;45.122;20.726;2023-05-23T02:34:22;15.70;;;9.60;;
60430;SDS011;46285;45.122;20.726;2023-05-23T02:44:23;14.88;;;11.60;;
60430;SDS011;46285;45.122;20.726;2023-05-23T02:54:25;18.10;;;11.60;;
60430;SDS011;46285;45.122;20.726;2023-05-23T03:04:26;19.95;;;13.10;;
60430;SDS011;46285;45.122;20.726;2023-05-23T03:14:27;17.15;;;11.93;;
60430;SDS011;46285;45.122;20.726;2023-05-23T03:24:28;18.08;;;13.07;;
60430;SDS011;46285;45.122;20.726;2023-05-23T03:34:29;19.20;;;12.88;;
60430;SDS011;46285;45.122;20.726;2023-05-23T03:44:31;25.15;;;13.77;;
60430;SDS011;46285;45.122;20.726;2023-05-23T03:54:32;29.08;;;16.15;;
60430;SDS011;46285;45.122;20.726;2023-05-23T04:04:33;16.85;;;14.20;;
60430;SDS011;46285;45.122;20.726;2023-05-23T04:14:36;22.98;;;13.43;;
60430;SDS011;46285;45.122;20.726;2023-05-23T04:24:37;14.95;;;9.80;;
60430;SDS011;46285;45.122;20.726;2023-05-23T04:34:38;12.80;;;9.10;;
60430;SDS011;46285;45.122;20.726;2023-05-23T04:44:41;15.10;;;8.00;;
60430;SDS011;46285;45.122;20.726;2023-05-23T04:54:51;10.65;;;6.95;;
60430;SDS011;46285;45.122;20.726;2023-05-23T05:04:52;10.73;;;8.18;;
60430;SDS011;46285;45.122;20.726;2023-05-23T05:14:54;10.63;;;7.18;;
60430;SDS011;46285;45.122;20.726;2023-05-23T05:24:56;13.60;;;7.68;;
60430;SDS011;46285;45.122;20.726;2023-05-23T05:34:58;11.55;;;7.45;;
60430;SDS011;46285;45.122;20.726;2023-05-23T05:45:01;12.60;;;7.70;;
60430;SDS011;46285;45.122;20.726;2023-05-23T05:55:05;13.23;;;8.33;;
60430;SDS011;46285;45.122;20.726;2023-05-23T06:05:10;11.48;;;8.35;;
60430;SDS011;46285;45.122;20.726;2023-05-23T06:15:12;12.43;;;8.38;;
60430;SDS011;46285;45.122;20.726;2023-05-23T06:25:14;13.90;;;8.27;;
60430;SDS011;46285;45.122;20.726;2023-05-23T06:35:15;15.52;;;9.13;;
60430;SDS011;46285;45.122;20.726;2023-05-23T06:45:17;11.65;;;8.70;;
60430;SDS011;46285;45.122;20.726;2023-05-23T06:55:18;10.65;;;7.28;;
60430;SDS011;46285;45.122;20.726;2023-05-23T07:05:21;10.43;;;6.97;;
60430;SDS011;46285;45.122;20.726;2023-05-23T07:15:24;11.15;;;6.13;;
60430;SDS011;46285;45.122;20.726;2023-05-23T07:25:40;13.90;;;7.07;;
60430;SDS011;46285;45.122;20.726;2023-05-23T07:35:46;12.20;;;5.57;;
60430;SDS011;46285;45.122;20.726;2023-05-23T07:45:47;11.63;;;6.85;;
60430;SDS011;46285;45.122;20.726;2023-05-23T07:55:49;10.75;;;6.25;;
60430;SDS011;46285;45.122;20.726;2023-05-23T08:05:50;9.97;;;5.53;;
60430;SDS011;46285;45.122;20.726;2023-05-23T08:15:52;11.02;;;5.32;;
60430;SDS011;46285;45.122;20.726;2023-05-23T08:25:58;10.68;;;5.10;;
60430;SDS011;46285;45.122;20.726;2023-05-23T08:35:59;7.25;;;3.70;;
60430;SDS011;46285;45.122;20.726;2023-05-23T08:46:00;10.05;;;3.72;;
60430;SDS011;46285;45.122;20.726;2023-05-23T08:56:04;9.48;;;3.78;;
60430;SDS011;46285;45.122;20.726;2023-05-23T09:06:15;11.60;;;3.90;;
60430;SDS011;46285;45.122;20.726;2023-05-23T09:16:16;7.88;;;3.90;;
60430;SDS011;46285;45.122;20.726;2023-05-23T09:26:30;7.13;;;3.72;;
60430;SDS011;46285;45.122;20.726;2023-05-23T09:36:32;10.13;;;4.25;;
60430;SDS011;46285;45.122;20.726;2023-05-23T09:46:36;13.25;;;4.32;;
60430;SDS011;46285;45.122;20.726;2023-05-23T09:56:39;9.23;;;3.80;;
60430;SDS011;46285;45.122;20.726;2023-05-23T10:06:43;10.13;;;3.65;;
60430;SDS011;46285;45.122;20.726;2023-05-23T10:16:56;7.38;;;3.85;;
60430;SDS011;46285;45.122;20.726;2023-05-23T10:26:59;8.05;;;4.07;;
60430;SDS011;46285;45.122;20.726;2023-05-23T10:37:07;12.70;;;4.28;;
60430;SDS011;46285;45.122;20.726;2023-05-23T10:47:09;8.80;;;3.38;;
60430;SDS011;46285;45.122;20.726;2023-05-23T10:57:14;9.13;;;4.65;;
60430;SDS011;46285;45.122;20.726;2023-05-23T11:07:28;7.72;;;4.10;;
60430;SDS011;46285;45.122;20.726;2023-05-23T11:17:30;7.85;;;3.60;;
60430;SDS011;46285;45.122;20.726;2023-05-23T11:37:33;7.35;;;3.25;;
60430;SDS011;46285;45.122;20.726;2023-05-23T11:47:39;6.13;;;3.40;;
60430;SDS011;46285;45.122;20.726;2023-05-23T11:57:40;7.38;;;2.85;;
60430;SDS011;46285;45.122;20.726;2023-05-23T12:07:42;8.20;;;3.72;;
60430;SDS011;46285;45.122;20.726;2023-05-23T12:17:43;9.33;;;4.47;;
60430;SDS011;46285;45.122;20.726;2023-05-23T12:27:45;7.63;;;3.53;;
60430;SDS011;46285;45.122;20.726;2023-05-23T12:37:48;6.35;;;3.22;;
60430;SDS011;46285;45.122;20.726;2023-05-23T12:47:49;8.75;;;4.18;;
60430;SDS011;46285;45.122;20.726;2023-05-23T12:57:51;7.47;;;3.80;;
60430;SDS011;46285;45.122;20.726;2023-05-23T13:07:53;8.73;;;3.15;;
60430;SDS011;46285;45.122;20.726;2023-05-23T13:17:54;9.43;;;3.17;;
60430;SDS011;46285;45.122;20.726;2023-05-23T13:27:55;7.97;;;4.40;;
60430;SDS011;46285;45.122;20.726;2023-05-23T13:37:57;8.60;;;3.93;;
60430;SDS011;46285;45.122;20.726;2023-05-23T13:47:59;6.40;;;3.40;;
60430;SDS011;46285;45.122;20.726;2023-05-23T13:58:02;8.50;;;4.63;;
60430;SDS011;46285;45.122;20.726;2023-05-23T14:08:03;9.32;;;5.03;;
60430;SDS011;46285;45.122;20.726;2023-05-23T14:18:04;12.60;;;5.82;;
60430;SDS011;46285;45.122;20.726;2023-05-23T14:28:05;11.15;;;5.07;;
60430;SDS011;46285;45.122;20.726;2023-05-23T14:38:06;10.50;;;5.13;;
60430;SDS011;46285;45.122;20.726;2023-05-23T14:48:08;9.05;;;4.55;;
60430;SDS011;46285;45.122;20.726;2023-05-23T14:58:09;7.07;;;3.83;;
60430;SDS011;46285;45.122;20.726;2023-05-23T15:08:10;7.80;;;5.10;;
60430;SDS011;46285;45.122;20.726;2023-05-23T15:18:11;10.25;;;5.13;;
60430;SDS011;46285;45.122;20.726;2023-05-23T15:28:13;11.05;;;4.90;;
60430;SDS011;46285;45.122;20.726;2023-05-23T15:38:14;13.50;;;5.10;;
60430;SDS011;46285;45.122;20.726;2023-05-23T15:48:15;9.07;;;4.45;;
60430;SDS011;46285;45.122;20.726;2023-05-23T16:08:43;11.57;;;5.13;;
60430;SDS011;46285;45.122;20.726;2023-05-23T16:18:44;8.95;;;4.80;;
60430;SDS011;46285;45.122;20.726;2023-05-23T16:28:45;10.27;;;4.95;;
60430;SDS011;46285;45.122;20.726;2023-05-23T16:38:47;9.90;;;3.70;;
60430;SDS011;46285;45.122;20.726;2023-05-23T16:48:48;9.77;;;3.55;;
60430;SDS011;46285;45.122;20.726;2023-05-23T16:58:49;16.90;;;4.32;;
60430;SDS011;46285;45.122;20.726;2023-05-23T17:08:50;16.10;;;4.35;;
60430;SDS011;46285;45.122;20.726;2023-05-23T17:18:51;13.27;;;4.75;;
60430;SDS011;46285;45.122;20.726;2023-05-23T17:28:52;9.63;;;3.80;;
60430;SDS011;46285;45.122;20.726;2023-05-23T17:38:53;14.43;;;4.95;;
60430;SDS011;46285;45.122;20.726;2023-05-23T17:48:55;9.65;;;4.75;;
60430;SDS011;46285;45.122;20.726;2023-05-23T17:58:56;9.57;;;4.55;;
60430;SDS011;46285;45.122;20.726;2023-05-23T18:08:57;16.83;;;5.70;;
60430;SDS011;46285;45.122;20.726;2023-05-23T18:18:59;11.40;;;4.57;;
60430;SDS011;46285;45.122;20.726;2023-05-23T18:29:00;9.32;;;4.32;;
60430;SDS011;46285;45.122;20.726;2023-05-23T18:39:01;9.85;;;5.38;;
60430;SDS011;46285;45.122;20.726;2023-05-23T18:49:02;10.88;;;5.35;;
60430;SDS011;46285;45.122;20.726;2023-05-23T18:59:04;8.40;;;4.85;;
60430;SDS011;46285;45.122;20.726;2023-05-23T19:09:05;9.57;;;5.40;;
60430;SDS011;46285;45.122;20.726;2023-05-23T19:19:06;12.43;;;5.50;;
60430;SDS011;46285;45.122;20.726;2023-05-23T19:29:13;11.35;;;6.00;;
60430;SDS011;46285;45.122;20.726;2023-05-23T19:39:16;18.83;;;6.43;;
60430;SDS011;46285;45.122;20.726;2023-05-23T19:49:17;9.80;;;6.30;;
60430;SDS011;46285;45.122;20.726;2023-05-23T19:59:18;12.48;;;6.63;;
60430;SDS011;46285;45.122;20.726;2023-05-23T20:09:20;11.88;;;6.32;;
60430;SDS011;46285;45.122;20.726;2023-05-23T20:19:21;10.30;;;6.05;;
60430;SDS011;46285;45.122;20.726;2023-05-23T20:29:22;10.23;;;6.22;;
60430;SDS011;46285;45.122;20.726;2023-05-23T20:39:24;9.45;;;6.30;;
60430;SDS011;46285;45.122;20.726;2023-05-23T20:49:25;9.88;;;5.47;;
60430;SDS011;46285;45.122;20.726;2023-05-23T20:59:26;9.75;;;6.03;;
60430;SDS011;46285;45.122;20.726;2023-05-23T21:09:27;9.73;;;5.07;;
60430;SDS011;46285;45.122;20.726;2023-05-23T21:19:41;10.37;;;6.43;;
60430;SDS011;46285;45.122;20.726;2023-05-23T21:29:43;7.53;;;4.63;;
60430;SDS011;46285;45.122;20.726;2023-05-23T21:39:44;8.43;;;5.28;;
60430;SDS011;46285;45.122;20.726;2023-05-23T21:49:46;8.75;;;6.15;;
60430;SDS011;46285;45.122;20.726;2023-05-23T21:59:47;13.65;;;7.28;;
60430;SDS011;46285;45.122;20.726;2023-05-23T22:09:48;9.07;;;5.85;;
60430;SDS011;46285;45.122;20.726;2023-05-23T22:19:49;11.50;;;5.75;;
60430;SDS011;46285;45.122;20.726;2023-05-23T22:29:50;8.77;;;6.43;;
60430;SDS011;46285;45.122;20.726;2023-05-23T22:39:52;12.93;;;7.63;;
60430;SDS011;46285;45.122;20.726;2023-05-23T22:49:53;12.50;;;7.95;;
60430;SDS011;46285;45.122;20.726;2023-05-23T22:59:54;11.65;;;6.70;;
60430;SDS011;46285;45.122;20.726;2023-05-23T23:09:55;10.13;;;7.65;;
60430;SDS011;46285;45.122;20.726;2023-05-23T23:19:56;10.82;;;8.23;;
60430;SDS011;46285;45.122;20.726;2023-05-23T23:29:58;12.50;;;8.63;;
60430;SDS011;46285;45.122;20.726;2023-05-23T23:39:59;11.27;;;7.55;;
60430;SDS011;46285;45.122;20.726;2023-05-23T23:50:00;12.38;;;9.27;;
